Twisp, WA (98856)

2:12 PM PST on December 07, 2016 (GMT -0800)
Homestead Hills | | Change Station
Active Advisory: Winter Storm Watch

Elev 1936 ft 48.38 °N, 120.11 °W | Updated 7 minutes ago

Clear
Clear
23.1 °F
Feels Like 23 °F
N
1.0
Wind Variable Wind from WSW
Gusts 3.0 mph

Today
High -- | Low -- °F
--% Chance of Precip.
Yesterday
High -- | Low -- °F
Precip. -- in
Pressure 30.58 in
Visibility 10.0 miles
Clouds Clear
Windchill 23 °F
Dew Point 7 °F
Humidity 51%
Rainfall 0.00 in
Snow Depth Not available.
7:38 AM 4:06 PM
First Quarter, 56% visible
METAR KOMK 072153Z AUTO 01015KT 10SM CLR M04/M16 A3051 RMK AO2 SLP355 T10441156
Pressure 30.58 in
Visibility 10.0 miles
Clouds Clear
Windchill 23 °F
Dew Point 7 °F
Humidity 51%
Rainfall 0.00 in
Snow Depth Not available.
7:38 AM 4:06 PM
First Quarter, 56% visible
METAR KOMK 072153Z AUTO 01015KT 10SM CLR M04/M16 A3051 RMK AO2 SLP355 T10441156

10-Day Weather Forecast

Almanac

Astronomy

Dec. 07, 2016 Rise Set
Actual Time
Civil Twilight
Nautical Twilight
Astronomical Twilight
Moon
Length of Visible Light
Length of Day
Tomorrow will be .
, % of the Moon is Illuminated

Today's Extremes

State Highs State Lows

Community

WunderPhotos

Upload Photos

1,956,209 photos uploaded!

WunderBlog® & News

Nearby

Air Quality

  Air Quality AQ Index Pollutant
Not available.

Snow Depth

Station Depth Elevation

Earthquake Activity

City Distance Mag. Time & Date
Minimum magnitude displayed is 2.5.

Coastal Water Temperatures

Place Temperature

Stations

Nearby Weather Stations

Station Location Temp. Windchill Dew Point Humidity Wind Precip. Elev Updated Type
                   

Watches & Warnings

Winter Storm Watch
Issued: 2:37 AM PST Dec. 7, 2016 – National Weather Service

... Winter Storm Watch remains in effect from Thursday afternoon
through Friday afternoon...

* locations... Leavenworth, Mazama, Twisp, Winthrop, Stehekin,
Conconully, Blewett Pass, and Loup Loup pass.

* Snow accumulations... 5 to 8 inches of snow in the valleys and
in the mountains 10 to 20 inches.

* Timing... light snow will begin in the Cascades Thursday
afternoon, then increase in intensity Thursday night before
decreasing Friday evening. More snow is possible Saturday.

* Impacts... heavy snow accumulation on roads will make travel
difficult and treacherous especially approaching mountain
passes.

* Web page: for a detailed view of the hazard area visit
http://www.Wrh.NOAA.Gov/map/?Wfo=otx.

Precautionary/preparedness actions...

A Winter Storm Watch means there is a potential for significant
snow accumulations that may impact travel. Continue to monitor
the latest forecasts.